sensor_id;sensor_type;location;lat;lon;timestamp;P1;durP1;ratioP1;P2;durP2;ratioP2
71207;SDS011;58938;49.868;8.646;2024-01-15T00:00:23;33.10;;;12.80;;
71207;SDS011;58938;49.868;8.646;2024-01-15T00:02:49;34.58;;;12.68;;
71207;SDS011;58938;49.868;8.646;2024-01-15T00:05:15;32.80;;;13.85;;
71207;SDS011;58938;49.868;8.646;2024-01-15T00:07:41;33.22;;;13.00;;
71207;SDS011;58938;49.868;8.646;2024-01-15T00:10:07;36.13;;;13.63;;
71207;SDS011;58938;49.868;8.646;2024-01-15T00:12:33;38.45;;;14.48;;
71207;SDS011;58938;49.868;8.646;2024-01-15T00:14:59;32.78;;;13.65;;
71207;SDS011;58938;49.868;8.646;2024-01-15T00:17:25;43.20;;;14.13;;
71207;SDS011;58938;49.868;8.646;2024-01-15T00:19:51;44.27;;;15.77;;
71207;SDS011;58938;49.868;8.646;2024-01-15T00:22:17;39.50;;;14.00;;
71207;SDS011;58938;49.868;8.646;2024-01-15T00:24:43;39.17;;;14.82;;
71207;SDS011;58938;49.868;8.646;2024-01-15T00:27:09;36.10;;;13.68;;
71207;SDS011;58938;49.868;8.646;2024-01-15T00:29:35;30.30;;;12.67;;
71207;SDS011;58938;49.868;8.646;2024-01-15T00:32:01;39.40;;;14.75;;
71207;SDS011;58938;49.868;8.646;2024-01-15T00:34:27;42.97;;;14.55;;
71207;SDS011;58938;49.868;8.646;2024-01-15T00:36:53;37.53;;;15.02;;
71207;SDS011;58938;49.868;8.646;2024-01-15T00:39:19;37.25;;;13.98;;
71207;SDS011;58938;49.868;8.646;2024-01-15T00:41:45;44.00;;;15.10;;
71207;SDS011;58938;49.868;8.646;2024-01-15T00:44:11;43.17;;;15.30;;
71207;SDS011;58938;49.868;8.646;2024-01-15T00:46:44;35.10;;;13.40;;
71207;SDS011;58938;49.868;8.646;2024-01-15T00:49:10;38.28;;;13.73;;
71207;SDS011;58938;49.868;8.646;2024-01-15T00:51:36;43.80;;;14.32;;
71207;SDS011;58938;49.868;8.646;2024-01-15T00:54:02;43.10;;;15.00;;
71207;SDS011;58938;49.868;8.646;2024-01-15T00:56:28;34.95;;;12.98;;
71207;SDS011;58938;49.868;8.646;2024-01-15T00:58:54;37.47;;;15.63;;
71207;SDS011;58938;49.868;8.646;2024-01-15T01:01:20;33.33;;;13.68;;
71207;SDS011;58938;49.868;8.646;2024-01-15T01:03:46;36.80;;;15.00;;
71207;SDS011;58938;49.868;8.646;2024-01-15T01:06:12;44.75;;;16.65;;
71207;SDS011;58938;49.868;8.646;2024-01-15T01:08:38;32.03;;;13.60;;
71207;SDS011;58938;49.868;8.646;2024-01-15T01:11:04;40.38;;;13.90;;
71207;SDS011;58938;49.868;8.646;2024-01-15T01:13:31;39.53;;;13.43;;
71207;SDS011;58938;49.868;8.646;2024-01-15T01:15:57;44.42;;;15.68;;
71207;SDS011;58938;49.868;8.646;2024-01-15T01:18:23;41.22;;;15.60;;
71207;SDS011;58938;49.868;8.646;2024-01-15T01:20:51;44.22;;;16.50;;
71207;SDS011;58938;49.868;8.646;2024-01-15T01:23:17;39.55;;;13.65;;
71207;SDS011;58938;49.868;8.646;2024-01-15T01:25:42;49.28;;;16.55;;
71207;SDS011;58938;49.868;8.646;2024-01-15T01:28:08;35.90;;;13.73;;
71207;SDS011;58938;49.868;8.646;2024-01-15T01:30:34;54.53;;;18.60;;
71207;SDS011;58938;49.868;8.646;2024-01-15T01:33:00;28.75;;;10.57;;
71207;SDS011;58938;49.868;8.646;2024-01-15T01:35:26;39.38;;;15.80;;
71207;SDS011;58938;49.868;8.646;2024-01-15T01:37:52;44.08;;;16.75;;
71207;SDS011;58938;49.868;8.646;2024-01-15T01:40:18;32.13;;;11.40;;
71207;SDS011;58938;49.868;8.646;2024-01-15T01:42:44;29.67;;;11.65;;
71207;SDS011;58938;49.868;8.646;2024-01-15T01:45:10;26.55;;;10.30;;
71207;SDS011;58938;49.868;8.646;2024-01-15T01:47:37;30.02;;;11.68;;
71207;SDS011;58938;49.868;8.646;2024-01-15T01:50:03;29.57;;;12.43;;
71207;SDS011;58938;49.868;8.646;2024-01-15T01:52:29;34.67;;;11.90;;
71207;SDS011;58938;49.868;8.646;2024-01-15T01:54:55;30.25;;;13.02;;
71207;SDS011;58938;49.868;8.646;2024-01-15T01:57:21;38.15;;;13.23;;
71207;SDS011;58938;49.868;8.646;2024-01-15T01:59:47;31.88;;;12.55;;
71207;SDS011;58938;49.868;8.646;2024-01-15T02:02:13;38.73;;;14.10;;
71207;SDS011;58938;49.868;8.646;2024-01-15T02:04:40;30.10;;;10.88;;
71207;SDS011;58938;49.868;8.646;2024-01-15T02:07:06;16.05;;;7.65;;
71207;SDS011;58938;49.868;8.646;2024-01-15T02:09:32;33.63;;;10.73;;
71207;SDS011;58938;49.868;8.646;2024-01-15T02:11:58;38.57;;;13.20;;
71207;SDS011;58938;49.868;8.646;2024-01-15T02:14:24;37.70;;;12.30;;
71207;SDS011;58938;49.868;8.646;2024-01-15T02:16:50;32.90;;;13.45;;
71207;SDS011;58938;49.868;8.646;2024-01-15T02:19:16;26.50;;;10.80;;
71207;SDS011;58938;49.868;8.646;2024-01-15T02:21:42;32.40;;;13.10;;
71207;SDS011;58938;49.868;8.646;2024-01-15T02:24:08;35.38;;;11.55;;
71207;SDS011;58938;49.868;8.646;2024-01-15T02:26:34;38.97;;;13.43;;
71207;SDS011;58938;49.868;8.646;2024-01-15T02:29:01;23.75;;;10.40;;
71207;SDS011;58938;49.868;8.646;2024-01-15T02:31:27;34.35;;;13.25;;
71207;SDS011;58938;49.868;8.646;2024-01-15T02:33:53;42.10;;;12.60;;
71207;SDS011;58938;49.868;8.646;2024-01-15T02:36:20;37.55;;;14.02;;
71207;SDS011;58938;49.868;8.646;2024-01-15T02:38:45;39.25;;;14.10;;
71207;SDS011;58938;49.868;8.646;2024-01-15T02:41:11;30.08;;;11.25;;
71207;SDS011;58938;49.868;8.646;2024-01-15T02:43:39;35.25;;;10.98;;
71207;SDS011;58938;49.868;8.646;2024-01-15T02:46:05;31.38;;;11.88;;
71207;SDS011;58938;49.868;8.646;2024-01-15T02:48:31;31.95;;;11.68;;
71207;SDS011;58938;49.868;8.646;2024-01-15T02:50:59;28.98;;;10.27;;
71207;SDS011;58938;49.868;8.646;2024-01-15T02:53:25;37.07;;;12.27;;
71207;SDS011;58938;49.868;8.646;2024-01-15T02:55:51;31.88;;;12.07;;
71207;SDS011;58938;49.868;8.646;2024-01-15T02:58:17;30.40;;;12.98;;
71207;SDS011;58938;49.868;8.646;2024-01-15T03:00:43;25.13;;;10.70;;
71207;SDS011;58938;49.868;8.646;2024-01-15T03:03:09;31.15;;;10.18;;
71207;SDS011;58938;49.868;8.646;2024-01-15T03:05:35;33.88;;;11.68;;
71207;SDS011;58938;49.868;8.646;2024-01-15T03:08:01;30.83;;;11.00;;
71207;SDS011;58938;49.868;8.646;2024-01-15T03:10:27;33.20;;;13.37;;
71207;SDS011;58938;49.868;8.646;2024-01-15T03:12:53;28.85;;;11.00;;
71207;SDS011;58938;49.868;8.646;2024-01-15T03:15:19;34.20;;;12.35;;
71207;SDS011;58938;49.868;8.646;2024-01-15T03:17:45;27.90;;;10.45;;
71207;SDS011;58938;49.868;8.646;2024-01-15T03:20:11;32.13;;;11.57;;
71207;SDS011;58938;49.868;8.646;2024-01-15T03:22:37;32.67;;;11.90;;
71207;SDS011;58938;49.868;8.646;2024-01-15T03:25:03;28.17;;;11.55;;
71207;SDS011;58938;49.868;8.646;2024-01-15T03:27:29;34.13;;;11.88;;
71207;SDS011;58938;49.868;8.646;2024-01-15T03:29:55;27.17;;;10.85;;
71207;SDS011;58938;49.868;8.646;2024-01-15T03:32:21;22.07;;;10.27;;
71207;SDS011;58938;49.868;8.646;2024-01-15T03:34:47;24.90;;;9.95;;
71207;SDS011;58938;49.868;8.646;2024-01-15T03:37:13;29.88;;;12.68;;
71207;SDS011;58938;49.868;8.646;2024-01-15T03:39:39;26.75;;;10.90;;
71207;SDS011;58938;49.868;8.646;2024-01-15T03:42:05;29.43;;;11.33;;
71207;SDS011;58938;49.868;8.646;2024-01-15T03:44:32;35.65;;;12.50;;
71207;SDS011;58938;49.868;8.646;2024-01-15T03:46:58;25.65;;;10.63;;
71207;SDS011;58938;49.868;8.646;2024-01-15T03:49:24;25.55;;;10.48;;
71207;SDS011;58938;49.868;8.646;2024-01-15T03:51:50;31.00;;;11.33;;
71207;SDS011;58938;49.868;8.646;2024-01-15T03:54:16;30.02;;;10.25;;
71207;SDS011;58938;49.868;8.646;2024-01-15T03:56:42;32.35;;;11.75;;
71207;SDS011;58938;49.868;8.646;2024-01-15T03:59:07;33.88;;;12.68;;
71207;SDS011;58938;49.868;8.646;2024-01-15T04:01:33;26.27;;;10.63;;
71207;SDS011;58938;49.868;8.646;2024-01-15T04:03:59;28.33;;;10.35;;
71207;SDS011;58938;49.868;8.646;2024-01-15T04:06:25;33.33;;;12.23;;
71207;SDS011;58938;49.868;8.646;2024-01-15T04:08:51;28.25;;;10.52;;
71207;SDS011;58938;49.868;8.646;2024-01-15T04:11:17;32.87;;;11.77;;
71207;SDS011;58938;49.868;8.646;2024-01-15T04:13:43;25.13;;;9.63;;
71207;SDS011;58938;49.868;8.646;2024-01-15T04:16:09;26.33;;;10.60;;
71207;SDS011;58938;49.868;8.646;2024-01-15T04:18:35;27.85;;;11.10;;
71207;SDS011;58938;49.868;8.646;2024-01-15T04:21:03;27.23;;;10.27;;
71207;SDS011;58938;49.868;8.646;2024-01-15T04:23:29;27.60;;;10.50;;
71207;SDS011;58938;49.868;8.646;2024-01-15T04:25:55;26.13;;;11.93;;
71207;SDS011;58938;49.868;8.646;2024-01-15T04:28:21;35.65;;;12.07;;
71207;SDS011;58938;49.868;8.646;2024-01-15T04:30:47;34.53;;;12.07;;
71207;SDS011;58938;49.868;8.646;2024-01-15T04:33:13;29.20;;;10.88;;
71207;SDS011;58938;49.868;8.646;2024-01-15T04:35:39;32.65;;;11.82;;
71207;SDS011;58938;49.868;8.646;2024-01-15T04:38:05;31.50;;;13.17;;
71207;SDS011;58938;49.868;8.646;2024-01-15T04:40:31;28.90;;;9.70;;
71207;SDS011;58938;49.868;8.646;2024-01-15T04:42:57;27.55;;;10.63;;
71207;SDS011;58938;49.868;8.646;2024-01-15T04:45:23;28.73;;;10.77;;
71207;SDS011;58938;49.868;8.646;2024-01-15T04:47:53;29.67;;;11.53;;
71207;SDS011;58938;49.868;8.646;2024-01-15T04:50:19;30.35;;;10.45;;
71207;SDS011;58938;49.868;8.646;2024-01-15T04:52:45;34.03;;;11.57;;
71207;SDS011;58938;49.868;8.646;2024-01-15T04:55:11;24.63;;;9.48;;
71207;SDS011;58938;49.868;8.646;2024-01-15T04:57:37;25.02;;;10.10;;
71207;SDS011;58938;49.868;8.646;2024-01-15T05:00:03;30.55;;;11.32;;
71207;SDS011;58938;49.868;8.646;2024-01-15T05:02:30;22.50;;;9.30;;
71207;SDS011;58938;49.868;8.646;2024-01-15T05:04:55;27.40;;;9.82;;
71207;SDS011;58938;49.868;8.646;2024-01-15T05:07:21;25.67;;;10.50;;
71207;SDS011;58938;49.868;8.646;2024-01-15T05:09:47;31.15;;;11.35;;
71207;SDS011;58938;49.868;8.646;2024-01-15T05:12:13;26.92;;;10.55;;
71207;SDS011;58938;49.868;8.646;2024-01-15T05:14:39;26.52;;;9.07;;
71207;SDS011;58938;49.868;8.646;2024-01-15T05:17:05;26.53;;;9.63;;
71207;SDS011;58938;49.868;8.646;2024-01-15T05:19:31;22.50;;;9.57;;
71207;SDS011;58938;49.868;8.646;2024-01-15T05:21:57;30.42;;;11.18;;
71207;SDS011;58938;49.868;8.646;2024-01-15T05:24:23;33.03;;;11.60;;
71207;SDS011;58938;49.868;8.646;2024-01-15T05:26:51;30.38;;;9.55;;
71207;SDS011;58938;49.868;8.646;2024-01-15T05:29:17;27.75;;;10.93;;
71207;SDS011;58938;49.868;8.646;2024-01-15T05:31:43;30.65;;;10.88;;
71207;SDS011;58938;49.868;8.646;2024-01-15T05:34:09;25.27;;;10.63;;
71207;SDS011;58938;49.868;8.646;2024-01-15T05:36:35;29.80;;;11.13;;
71207;SDS011;58938;49.868;8.646;2024-01-15T05:39:01;24.38;;;10.32;;
71207;SDS011;58938;49.868;8.646;2024-01-15T05:41:28;31.73;;;12.18;;
71207;SDS011;58938;49.868;8.646;2024-01-15T05:43:54;26.00;;;9.90;;
71207;SDS011;58938;49.868;8.646;2024-01-15T05:46:19;32.92;;;11.07;;
71207;SDS011;58938;49.868;8.646;2024-01-15T05:48:45;26.23;;;10.20;;
71207;SDS011;58938;49.868;8.646;2024-01-15T05:51:12;32.30;;;11.60;;
71207;SDS011;58938;49.868;8.646;2024-01-15T05:53:38;25.70;;;10.23;;
71207;SDS011;58938;49.868;8.646;2024-01-15T05:56:06;30.80;;;11.57;;
71207;SDS011;58938;49.868;8.646;2024-01-15T05:58:32;24.40;;;9.70;;
71207;SDS011;58938;49.868;8.646;2024-01-15T06:00:58;26.20;;;10.27;;
71207;SDS011;58938;49.868;8.646;2024-01-15T06:03:24;36.83;;;14.13;;
71207;SDS011;58938;49.868;8.646;2024-01-15T06:05:50;31.80;;;12.48;;
71207;SDS011;58938;49.868;8.646;2024-01-15T06:08:16;34.22;;;12.95;;
71207;SDS011;58938;49.868;8.646;2024-01-15T06:10:42;35.85;;;12.13;;
71207;SDS011;58938;49.868;8.646;2024-01-15T06:13:08;28.00;;;10.80;;
71207;SDS011;58938;49.868;8.646;2024-01-15T06:15:34;27.98;;;11.07;;
71207;SDS011;58938;49.868;8.646;2024-01-15T06:18:00;35.85;;;11.45;;
71207;SDS011;58938;49.868;8.646;2024-01-15T06:20:26;27.90;;;12.00;;
71207;SDS011;58938;49.868;8.646;2024-01-15T06:22:52;28.40;;;10.45;;
71207;SDS011;58938;49.868;8.646;2024-01-15T06:25:18;29.23;;;10.77;;
71207;SDS011;58938;49.868;8.646;2024-01-15T06:27:44;27.60;;;10.60;;
71207;SDS011;58938;49.868;8.646;2024-01-15T06:30:10;25.63;;;11.55;;
71207;SDS011;58938;49.868;8.646;2024-01-15T06:32:36;32.58;;;11.57;;
71207;SDS011;58938;49.868;8.646;2024-01-15T06:35:03;35.23;;;11.10;;
71207;SDS011;58938;49.868;8.646;2024-01-15T06:37:29;32.17;;;12.38;;
71207;SDS011;58938;49.868;8.646;2024-01-15T06:39:55;25.10;;;10.93;;
71207;SDS011;58938;49.868;8.646;2024-01-15T06:42:22;25.02;;;9.88;;
71207;SDS011;58938;49.868;8.646;2024-01-15T06:44:47;28.33;;;10.10;;
71207;SDS011;58938;49.868;8.646;2024-01-15T06:47:13;22.55;;;10.48;;
71207;SDS011;58938;49.868;8.646;2024-01-15T06:49:39;26.15;;;9.23;;
71207;SDS011;58938;49.868;8.646;2024-01-15T06:52:05;25.42;;;9.90;;
71207;SDS011;58938;49.868;8.646;2024-01-15T06:54:31;24.30;;;10.02;;
71207;SDS011;58938;49.868;8.646;2024-01-15T06:56:57;30.67;;;10.37;;
71207;SDS011;58938;49.868;8.646;2024-01-15T06:59:23;28.23;;;10.68;;
71207;SDS011;58938;49.868;8.646;2024-01-15T07:01:49;22.63;;;10.25;;
71207;SDS011;58938;49.868;8.646;2024-01-15T07:04:15;24.73;;;9.95;;
71207;SDS011;58938;49.868;8.646;2024-01-15T07:06:41;26.13;;;9.90;;
71207;SDS011;58938;49.868;8.646;2024-01-15T07:09:07;27.85;;;9.48;;
71207;SDS011;58938;49.868;8.646;2024-01-15T07:11:34;26.27;;;10.55;;
71207;SDS011;58938;49.868;8.646;2024-01-15T07:14:00;29.23;;;9.95;;
71207;SDS011;58938;49.868;8.646;2024-01-15T07:16:26;24.98;;;9.30;;
71207;SDS011;58938;49.868;8.646;2024-01-15T07:18:52;25.40;;;10.40;;
71207;SDS011;58938;49.868;8.646;2024-01-15T07:21:18;28.98;;;10.52;;
71207;SDS011;58938;49.868;8.646;2024-01-15T07:23:44;26.20;;;10.23;;
71207;SDS011;58938;49.868;8.646;2024-01-15T07:26:10;30.20;;;11.35;;
71207;SDS011;58938;49.868;8.646;2024-01-15T07:28:36;27.33;;;10.52;;
71207;SDS011;58938;49.868;8.646;2024-01-15T07:31:02;29.90;;;12.45;;
71207;SDS011;58938;49.868;8.646;2024-01-15T07:33:28;27.42;;;10.50;;
71207;SDS011;58938;49.868;8.646;2024-01-15T07:35:54;33.08;;;11.80;;
71207;SDS011;58938;49.868;8.646;2024-01-15T07:38:20;27.10;;;10.50;;
71207;SDS011;58938;49.868;8.646;2024-01-15T07:40:47;27.17;;;11.07;;
71207;SDS011;58938;49.868;8.646;2024-01-15T07:43:14;23.98;;;9.90;;
71207;SDS011;58938;49.868;8.646;2024-01-15T07:45:40;30.63;;;11.25;;
71207;SDS011;58938;49.868;8.646;2024-01-15T07:48:06;28.45;;;11.23;;
71207;SDS011;58938;49.868;8.646;2024-01-15T07:50:32;24.98;;;11.38;;
71207;SDS011;58938;49.868;8.646;2024-01-15T07:52:58;22.48;;;10.35;;
71207;SDS011;58938;49.868;8.646;2024-01-15T07:55:24;27.45;;;11.38;;
71207;SDS011;58938;49.868;8.646;2024-01-15T07:57:50;28.55;;;10.48;;
71207;SDS011;58938;49.868;8.646;2024-01-15T08:00:17;26.80;;;10.88;;
71207;SDS011;58938;49.868;8.646;2024-01-15T08:02:43;29.73;;;11.38;;
71207;SDS011;58938;49.868;8.646;2024-01-15T08:05:09;31.23;;;12.80;;
71207;SDS011;58938;49.868;8.646;2024-01-15T08:07:35;23.75;;;10.50;;
71207;SDS011;58938;49.868;8.646;2024-01-15T08:10:01;29.67;;;11.27;;
71207;SDS011;58938;49.868;8.646;2024-01-15T08:12:28;30.67;;;12.18;;
71207;SDS011;58938;49.868;8.646;2024-01-15T08:14:54;30.27;;;12.20;;
71207;SDS011;58938;49.868;8.646;2024-01-15T08:17:20;26.52;;;11.27;;
71207;SDS011;58938;49.868;8.646;2024-01-15T08:19:46;30.43;;;10.87;;
71207;SDS011;58938;49.868;8.646;2024-01-15T08:22:12;29.08;;;10.90;;
71207;SDS011;58938;49.868;8.646;2024-01-15T08:24:38;21.48;;;9.35;;
71207;SDS011;58938;49.868;8.646;2024-01-15T08:27:04;27.05;;;10.05;;
71207;SDS011;58938;49.868;8.646;2024-01-15T08:29:30;24.08;;;10.75;;
71207;SDS011;58938;49.868;8.646;2024-01-15T08:31:58;24.00;;;10.80;;
71207;SDS011;58938;49.868;8.646;2024-01-15T08:34:24;28.27;;;11.63;;
71207;SDS011;58938;49.868;8.646;2024-01-15T08:36:50;26.50;;;10.05;;
71207;SDS011;58938;49.868;8.646;2024-01-15T08:39:16;35.27;;;11.67;;
71207;SDS011;58938;49.868;8.646;2024-01-15T08:41:44;30.63;;;12.18;;
71207;SDS011;58938;49.868;8.646;2024-01-15T08:44:11;36.42;;;13.07;;
71207;SDS011;58938;49.868;8.646;2024-01-15T08:46:37;28.83;;;12.02;;
71207;SDS011;58938;49.868;8.646;2024-01-15T08:49:03;21.55;;;11.32;;
71207;SDS011;58938;49.868;8.646;2024-01-15T08:51:30;27.67;;;11.30;;
71207;SDS011;58938;49.868;8.646;2024-01-15T08:53:56;27.35;;;10.45;;
71207;SDS011;58938;49.868;8.646;2024-01-15T08:56:23;26.67;;;10.57;;
71207;SDS011;58938;49.868;8.646;2024-01-15T08:58:49;25.92;;;11.48;;
71207;SDS011;58938;49.868;8.646;2024-01-15T09:01:15;30.50;;;11.67;;
71207;SDS011;58938;49.868;8.646;2024-01-15T09:03:41;26.15;;;11.48;;
71207;SDS011;58938;49.868;8.646;2024-01-15T09:06:07;31.30;;;11.52;;
71207;SDS011;58938;49.868;8.646;2024-01-15T09:08:34;25.77;;;10.98;;
71207;SDS011;58938;49.868;8.646;2024-01-15T09:11:01;27.48;;;11.35;;
71207;SDS011;58938;49.868;8.646;2024-01-15T09:13:28;31.40;;;11.00;;
71207;SDS011;58938;49.868;8.646;2024-01-15T09:15:54;27.67;;;10.57;;
71207;SDS011;58938;49.868;8.646;2024-01-15T09:18:20;25.63;;;11.77;;
71207;SDS011;58938;49.868;8.646;2024-01-15T09:20:46;25.88;;;10.68;;
71207;SDS011;58938;49.868;8.646;2024-01-15T09:23:12;27.63;;;12.13;;
71207;SDS011;58938;49.868;8.646;2024-01-15T09:25:38;28.77;;;11.95;;
71207;SDS011;58938;49.868;8.646;2024-01-15T09:28:04;26.80;;;10.80;;
71207;SDS011;58938;49.868;8.646;2024-01-15T09:30:30;28.63;;;12.60;;
71207;SDS011;58938;49.868;8.646;2024-01-15T09:32:56;24.73;;;10.17;;
71207;SDS011;58938;49.868;8.646;2024-01-15T09:35:22;27.38;;;10.60;;
71207;SDS011;58938;49.868;8.646;2024-01-15T09:37:48;28.55;;;10.30;;
71207;SDS011;58938;49.868;8.646;2024-01-15T09:40:14;26.92;;;11.77;;
71207;SDS011;58938;49.868;8.646;2024-01-15T09:42:41;23.95;;;11.07;;
71207;SDS011;58938;49.868;8.646;2024-01-15T09:45:07;30.55;;;11.40;;
71207;SDS011;58938;49.868;8.646;2024-01-15T09:47:34;28.30;;;11.63;;
71207;SDS011;58938;49.868;8.646;2024-01-15T09:50:00;29.95;;;11.95;;
71207;SDS011;58938;49.868;8.646;2024-01-15T09:52:28;30.50;;;10.82;;
71207;SDS011;58938;49.868;8.646;2024-01-15T09:54:56;25.58;;;11.48;;
71207;SDS011;58938;49.868;8.646;2024-01-15T09:57:23;30.00;;;12.43;;
71207;SDS011;58938;49.868;8.646;2024-01-15T09:59:49;26.30;;;9.82;;
71207;SDS011;58938;49.868;8.646;2024-01-15T10:02:15;24.95;;;10.90;;
71207;SDS011;58938;49.868;8.646;2024-01-15T10:04:43;24.65;;;11.35;;
71207;SDS011;58938;49.868;8.646;2024-01-15T10:07:09;31.10;;;11.80;;
71207;SDS011;58938;49.868;8.646;2024-01-15T10:09:37;18.02;;;7.20;;
71207;SDS011;58938;49.868;8.646;2024-01-15T10:12:03;29.00;;;12.32;;
71207;SDS011;58938;49.868;8.646;2024-01-15T10:14:29;28.90;;;12.23;;
71207;SDS011;58938;49.868;8.646;2024-01-15T10:16:55;20.13;;;8.65;;
71207;SDS011;58938;49.868;8.646;2024-01-15T10:19:22;25.83;;;9.80;;
71207;SDS011;58938;49.868;8.646;2024-01-15T10:21:48;28.38;;;11.68;;
71207;SDS011;58938;49.868;8.646;2024-01-15T10:24:14;24.42;;;10.35;;
71207;SDS011;58938;49.868;8.646;2024-01-15T10:26:40;24.50;;;10.07;;
71207;SDS011;58938;49.868;8.646;2024-01-15T10:29:06;22.25;;;10.63;;
71207;SDS011;58938;49.868;8.646;2024-01-15T10:31:32;29.80;;;11.45;;
71207;SDS011;58938;49.868;8.646;2024-01-15T10:34:11;29.50;;;10.65;;
71207;SDS011;58938;49.868;8.646;2024-01-15T10:36:39;27.25;;;10.00;;
71207;SDS011;58938;49.868;8.646;2024-01-15T10:39:05;21.92;;;9.70;;
71207;SDS011;58938;49.868;8.646;2024-01-15T10:41:32;24.48;;;9.70;;
71207;SDS011;58938;49.868;8.646;2024-01-15T10:43:58;24.80;;;10.70;;
71207;SDS011;58938;49.868;8.646;2024-01-15T10:46:25;30.73;;;11.73;;
71207;SDS011;58938;49.868;8.646;2024-01-15T10:48:51;24.40;;;10.50;;
71207;SDS011;58938;49.868;8.646;2024-01-15T10:51:17;26.75;;;11.25;;
71207;SDS011;58938;49.868;8.646;2024-01-15T10:53:43;28.05;;;11.23;;
71207;SDS011;58938;49.868;8.646;2024-01-15T10:56:10;28.45;;;10.95;;
71207;SDS011;58938;49.868;8.646;2024-01-15T10:58:38;21.77;;;10.15;;
71207;SDS011;58938;49.868;8.646;2024-01-15T11:01:05;25.00;;;9.10;;
71207;SDS011;58938;49.868;8.646;2024-01-15T11:03:31;27.23;;;10.75;;
71207;SDS011;58938;49.868;8.646;2024-01-15T11:05:57;26.90;;;11.27;;
71207;SDS011;58938;49.868;8.646;2024-01-15T11:08:24;27.67;;;10.80;;
71207;SDS011;58938;49.868;8.646;2024-01-15T11:10:50;25.88;;;10.52;;
71207;SDS011;58938;49.868;8.646;2024-01-15T11:16:02;25.02;;;10.85;;
71207;SDS011;58938;49.868;8.646;2024-01-15T11:18:29;27.38;;;10.63;;
71207;SDS011;58938;49.868;8.646;2024-01-15T11:21:38;22.73;;;10.23;;
71207;SDS011;58938;49.868;8.646;2024-01-15T11:23:48;26.65;;;11.00;;
71207;SDS011;58938;49.868;8.646;2024-01-15T11:29:00;25.25;;;10.73;;
71207;SDS011;58938;49.868;8.646;2024-01-15T11:34:06;21.88;;;9.50;;
71207;SDS011;58938;49.868;8.646;2024-01-15T11:42:00;20.65;;;10.02;;
71207;SDS011;58938;49.868;8.646;2024-01-15T11:44:26;19.77;;;10.45;;
71207;SDS011;58938;49.868;8.646;2024-01-15T11:46:57;21.95;;;9.07;;
71207;SDS011;58938;49.868;8.646;2024-01-15T11:50:06;20.17;;;9.75;;
71207;SDS011;58938;49.868;8.646;2024-01-15T11:52:13;22.27;;;9.68;;
71207;SDS011;58938;49.868;8.646;2024-01-15T11:54:42;19.17;;;8.25;;
71207;SDS011;58938;49.868;8.646;2024-01-15T11:57:14;21.10;;;10.02;;
71207;SDS011;58938;49.868;8.646;2024-01-15T11:59:43;21.73;;;10.07;;
71207;SDS011;58938;49.868;8.646;2024-01-15T12:02:09;23.75;;;10.63;;
71207;SDS011;58938;49.868;8.646;2024-01-15T12:04:38;20.35;;;9.82;;
71207;SDS011;58938;49.868;8.646;2024-01-15T12:07:04;20.67;;;8.40;;
71207;SDS011;58938;49.868;8.646;2024-01-15T12:09:30;19.70;;;9.43;;
71207;SDS011;58938;49.868;8.646;2024-01-15T12:12:02;23.10;;;9.90;;
71207;SDS011;58938;49.868;8.646;2024-01-15T12:14:31;21.20;;;8.90;;
71207;SDS011;58938;49.868;8.646;2024-01-15T12:16:57;18.63;;;8.13;;
71207;SDS011;58938;49.868;8.646;2024-01-15T12:19:23;19.75;;;9.00;;
71207;SDS011;58938;49.868;8.646;2024-01-15T12:21:50;20.25;;;8.82;;
71207;SDS011;58938;49.868;8.646;2024-01-15T12:24:17;19.23;;;8.18;;
71207;SDS011;58938;49.868;8.646;2024-01-15T12:26:43;18.53;;;8.83;;
71207;SDS011;58938;49.868;8.646;2024-01-15T12:29:10;18.38;;;9.50;;
71207;SDS011;58938;49.868;8.646;2024-01-15T12:31:36;18.10;;;9.32;;
71207;SDS011;58938;49.868;8.646;2024-01-15T12:34:02;19.20;;;8.57;;
71207;SDS011;58938;49.868;8.646;2024-01-15T12:36:31;17.90;;;8.48;;
71207;SDS011;58938;49.868;8.646;2024-01-15T12:39:00;21.35;;;10.35;;
71207;SDS011;58938;49.868;8.646;2024-01-15T12:41:27;18.83;;;9.20;;
71207;SDS011;58938;49.868;8.646;2024-01-15T12:43:53;23.77;;;10.52;;
71207;SDS011;58938;49.868;8.646;2024-01-15T12:46:19;20.98;;;9.40;;
71207;SDS011;58938;49.868;8.646;2024-01-15T12:48:45;20.17;;;8.47;;
71207;SDS011;58938;49.868;8.646;2024-01-15T12:51:11;19.17;;;9.05;;
71207;SDS011;58938;49.868;8.646;2024-01-15T12:53:37;17.13;;;8.75;;
71207;SDS011;58938;49.868;8.646;2024-01-15T12:56:03;15.38;;;7.93;;
71207;SDS011;58938;49.868;8.646;2024-01-15T12:58:29;14.90;;;7.70;;
71207;SDS011;58938;49.868;8.646;2024-01-15T13:00:55;15.85;;;7.38;;
71207;SDS011;58938;49.868;8.646;2024-01-15T13:03:22;16.65;;;8.57;;
71207;SDS011;58938;49.868;8.646;2024-01-15T13:05:48;17.00;;;6.68;;
71207;SDS011;58938;49.868;8.646;2024-01-15T13:08:14;12.82;;;6.30;;
71207;SDS011;58938;49.868;8.646;2024-01-15T13:10:40;16.13;;;7.75;;
71207;SDS011;58938;49.868;8.646;2024-01-15T13:13:07;14.35;;;7.20;;
71207;SDS011;58938;49.868;8.646;2024-01-15T13:15:33;16.55;;;8.00;;
71207;SDS011;58938;49.868;8.646;2024-01-15T13:17:59;16.88;;;8.10;;
71207;SDS011;58938;49.868;8.646;2024-01-15T13:20:25;14.63;;;6.53;;
71207;SDS011;58938;49.868;8.646;2024-01-15T13:22:51;16.17;;;7.45;;
71207;SDS011;58938;49.868;8.646;2024-01-15T13:25:17;12.40;;;6.93;;
71207;SDS011;58938;49.868;8.646;2024-01-15T13:27:43;11.70;;;5.90;;
71207;SDS011;58938;49.868;8.646;2024-01-15T13:30:09;15.40;;;7.57;;
71207;SDS011;58938;49.868;8.646;2024-01-15T13:32:36;12.05;;;6.65;;
71207;SDS011;58938;49.868;8.646;2024-01-15T13:35:02;12.80;;;7.15;;
71207;SDS011;58938;49.868;8.646;2024-01-15T13:37:31;9.52;;;5.05;;
71207;SDS011;58938;49.868;8.646;2024-01-15T13:39:57;16.07;;;7.43;;
71207;SDS011;58938;49.868;8.646;2024-01-15T13:42:23;13.05;;;5.97;;
71207;SDS011;58938;49.868;8.646;2024-01-15T13:44:52;14.18;;;6.78;;
71207;SDS011;58938;49.868;8.646;2024-01-15T13:47:18;15.68;;;6.25;;
71207;SDS011;58938;49.868;8.646;2024-01-15T13:49:44;11.73;;;6.03;;
71207;SDS011;58938;49.868;8.646;2024-01-15T13:52:10;15.35;;;6.75;;
71207;SDS011;58938;49.868;8.646;2024-01-15T13:54:36;14.82;;;6.80;;
71207;SDS011;58938;49.868;8.646;2024-01-15T13:57:02;14.70;;;6.63;;
71207;SDS011;58938;49.868;8.646;2024-01-15T13:59:28;14.82;;;6.53;;
71207;SDS011;58938;49.868;8.646;2024-01-15T14:01:54;13.65;;;6.15;;
71207;SDS011;58938;49.868;8.646;2024-01-15T14:04:20;16.05;;;7.55;;
71207;SDS011;58938;49.868;8.646;2024-01-15T14:06:46;11.75;;;6.22;;
71207;SDS011;58938;49.868;8.646;2024-01-15T14:09:12;12.90;;;6.18;;
71207;SDS011;58938;49.868;8.646;2024-01-15T14:11:39;10.93;;;5.53;;
71207;SDS011;58938;49.868;8.646;2024-01-15T14:14:05;12.57;;;6.22;;
71207;SDS011;58938;49.868;8.646;2024-01-15T14:16:33;13.48;;;6.43;;
71207;SDS011;58938;49.868;8.646;2024-01-15T14:18:59;13.70;;;5.55;;
71207;SDS011;58938;49.868;8.646;2024-01-15T14:21:27;16.27;;;7.60;;
71207;SDS011;58938;49.868;8.646;2024-01-15T14:23:53;9.52;;;5.35;;
71207;SDS011;58938;49.868;8.646;2024-01-15T14:26:19;11.88;;;6.20;;
71207;SDS011;58938;49.868;8.646;2024-01-15T14:28:45;15.80;;;6.53;;
71207;SDS011;58938;49.868;8.646;2024-01-15T14:31:12;12.65;;;6.13;;
71207;SDS011;58938;49.868;8.646;2024-01-15T14:33:38;14.75;;;6.45;;